createdAt,value
2018-06-27T00:02:07.113Z,14.20
2018-06-27T00:04:35.169Z,14.20
2018-06-27T00:07:03.225Z,14.10
2018-06-27T00:09:31.256Z,14.10
2018-06-27T00:11:59.339Z,14.00
2018-06-27T00:14:27.358Z,14.00
2018-06-27T00:16:55.402Z,14.10
2018-06-27T00:19:23.489Z,14.10
2018-06-27T00:24:19.401Z,14.00
2018-06-27T00:26:47.452Z,14.00
2018-06-27T00:29:15.500Z,14.10
2018-06-27T00:31:43.540Z,14.10
2018-06-27T00:34:11.606Z,14.10
2018-06-27T00:36:39.656Z,13.90
2018-06-27T00:39:08.796Z,13.80
2018-06-27T00:41:36.859Z,13.80
2018-06-27T00:44:05.080Z,13.70
2018-06-27T00:49:01.047Z,13.80
2018-06-27T00:51:29.080Z,13.70
2018-06-27T00:54:02.595Z,13.70
2018-06-27T00:58:58.473Z,13.60
2018-06-27T01:01:26.520Z,13.60
2018-06-27T01:03:54.648Z,13.60
2018-06-27T01:06:22.679Z,13.60
2018-06-27T01:08:50.740Z,13.60
2018-06-27T01:11:18.788Z,13.60
2018-06-27T01:13:46.809Z,13.60
2018-06-27T01:16:14.867Z,13.60
2018-06-27T01:18:42.889Z,13.60
2018-06-27T01:23:38.770Z,13.60
2018-06-27T01:26:06.826Z,13.60
2018-06-27T01:28:34.861Z,13.50
2018-06-27T01:33:30.703Z,13.50
2018-06-27T01:35:58.740Z,13.40
2018-06-27T01:38:26.778Z,13.40
2018-06-27T01:40:54.801Z,13.30
2018-06-27T01:43:22.840Z,13.40
2018-06-27T01:45:50.888Z,13.30
2018-06-27T01:48:18.908Z,13.30
2018-06-27T01:53:14.793Z,13.30
2018-06-27T01:55:42.856Z,13.40
2018-06-27T01:58:10.921Z,13.30
2018-06-27T02:00:39.025Z,13.30
2018-06-27T02:03:07.320Z,13.30
2018-06-27T02:05:35.438Z,13.40
2018-06-27T02:08:03.401Z,13.40
2018-06-27T02:10:31.444Z,13.30
2018-06-27T02:12:59.473Z,13.30
2018-06-27T02:15:27.974Z,13.30
2018-06-27T02:17:55.993Z,13.30
2018-06-27T02:20:24.124Z,13.30
2018-06-27T02:22:52.143Z,13.20
2018-06-27T02:25:20.184Z,13.20
2018-06-27T02:27:48.206Z,13.20
2018-06-27T02:30:16.281Z,13.20
2018-06-27T02:32:44.323Z,13.20
2018-06-27T02:35:12.382Z,13.20
2018-06-27T02:37:40.413Z,13.20
2018-06-27T02:40:08.497Z,13.20
2018-06-27T02:45:04.396Z,13.20
2018-06-27T02:47:32.427Z,13.20
2018-06-27T02:50:00.833Z,13.20
2018-06-27T02:52:28.883Z,13.20
2018-06-27T02:54:56.928Z,13.20
2018-06-27T02:59:52.849Z,13.30
2018-06-27T03:02:20.926Z,13.20
2018-06-27T03:04:48.917Z,13.20
2018-06-27T03:07:16.947Z,13.20
2018-06-27T03:09:44.965Z,13.20
2018-06-27T03:12:13.045Z,13.30
2018-06-27T03:14:41.102Z,13.30
2018-06-27T03:17:09.144Z,13.40
2018-06-27T03:19:37.177Z,13.40
2018-06-27T03:22:05.232Z,13.40
2018-06-27T03:24:33.258Z,13.40
2018-06-27T03:27:01.308Z,13.40
2018-06-27T03:29:29.325Z,13.40
2018-06-27T03:31:57.371Z,13.50
2018-06-27T03:36:53.253Z,13.60
2018-06-27T03:39:21.297Z,13.70
2018-06-27T03:41:49.346Z,13.80
2018-06-27T03:44:17.389Z,13.90
2018-06-27T03:46:45.449Z,13.90
2018-06-27T03:49:13.481Z,13.90
2018-06-27T03:51:41.540Z,14.10
2018-06-27T03:54:09.588Z,14.10
2018-06-27T03:56:37.628Z,14.30
2018-06-27T03:59:05.713Z,14.10
2018-06-27T04:01:33.748Z,14.20
2018-06-27T04:04:01.792Z,14.30
2018-06-27T04:06:29.864Z,14.30
2018-06-27T04:08:57.896Z,14.30
2018-06-27T04:11:25.936Z,14.30
2018-06-27T04:13:54.001Z,14.30
2018-06-27T04:16:22.056Z,14.40
2018-06-27T04:18:50.104Z,14.60
2018-06-27T04:23:46.020Z,14.80
2018-06-27T04:26:14.049Z,14.90
2018-06-27T04:28:42.101Z,14.90
2018-06-27T04:31:10.142Z,15.00
2018-06-27T04:33:38.192Z,15.10
2018-06-27T04:36:06.257Z,15.10
2018-06-27T04:38:34.272Z,15.10
2018-06-27T04:41:02.360Z,15.30
2018-06-27T04:43:30.411Z,15.30
2018-06-27T04:45:58.441Z,15.40
2018-06-27T04:48:26.486Z,15.40
2018-06-27T04:50:54.544Z,15.50
2018-06-27T04:53:22.609Z,15.50
2018-06-27T04:55:50.648Z,15.50
2018-06-27T04:58:18.680Z,15.50
2018-06-27T05:00:46.737Z,15.60
2018-06-27T05:03:14.779Z,15.60
2018-06-27T05:05:42.821Z,15.70
2018-06-27T05:10:38.694Z,15.80
2018-06-27T05:13:06.813Z,15.80
2018-06-27T05:15:34.866Z,16.10
2018-06-27T05:18:02.891Z,16.20
2018-06-27T05:20:30.960Z,16.40
2018-06-27T05:22:59.429Z,16.40
2018-06-27T05:27:55.293Z,16.60
2018-06-27T05:30:23.347Z,16.80
2018-06-27T05:32:51.391Z,16.80
2018-06-27T05:35:19.422Z,16.80
2018-06-27T05:37:47.456Z,17.00
2018-06-27T05:40:15.518Z,17.10
2018-06-27T05:42:43.603Z,17.10
2018-06-27T05:45:11.644Z,17.10
2018-06-27T05:47:39.664Z,17.20
2018-06-27T05:50:07.683Z,17.30
2018-06-27T05:52:35.735Z,17.50
2018-06-27T05:55:08.908Z,17.60
2018-06-27T05:57:38.116Z,17.50
2018-06-27T06:00:06.836Z,17.50
2018-06-27T06:02:34.891Z,17.70
2018-06-27T06:05:02.944Z,17.80
2018-06-27T06:07:31.040Z,17.90
2018-06-27T06:09:59.191Z,17.90
2018-06-27T06:12:27.193Z,17.90
2018-06-27T06:14:55.549Z,18.00
2018-06-27T06:17:23.569Z,18.20
2018-06-27T06:19:51.763Z,18.50
2018-06-27T06:22:19.746Z,18.70
2018-06-27T06:24:47.781Z,18.90
2018-06-27T06:27:16.181Z,18.90
2018-06-27T06:29:45.197Z,19.10
2018-06-27T06:32:13.865Z,19.20
2018-06-27T06:37:10.428Z,19.20
2018-06-27T06:39:38.478Z,19.10
2018-06-27T06:42:06.496Z,19.20
2018-06-27T06:51:58.747Z,20.00
2018-06-27T06:54:27.749Z,20.20
2018-06-27T06:56:55.836Z,20.40
2018-06-27T07:01:53.590Z,20.60
2018-06-27T07:04:21.644Z,20.50
2018-06-27T07:06:49.662Z,20.60
2018-06-27T07:09:17.709Z,20.60
2018-06-27T07:11:45.745Z,20.60
2018-06-27T07:14:13.775Z,20.60
2018-06-27T07:16:41.817Z,20.70
2018-06-27T07:19:09.844Z,20.70
2018-06-27T07:21:37.956Z,20.70
2018-06-27T07:24:06.160Z,20.60
2018-06-27T07:26:34.183Z,20.60
2018-06-27T07:29:02.217Z,20.70
2018-06-27T07:31:30.263Z,20.70
2018-06-27T07:33:58.306Z,20.80
2018-06-27T07:36:26.316Z,20.90
2018-06-27T07:38:54.361Z,20.90
2018-06-27T07:41:22.464Z,20.90
2018-06-27T07:43:50.550Z,20.90
2018-06-27T07:46:18.560Z,21.00
2018-06-27T07:48:46.692Z,21.10
2018-06-27T07:51:14.704Z,21.30
2018-06-27T07:53:42.728Z,21.30
2018-06-27T07:56:10.759Z,21.20
2018-06-27T07:58:38.803Z,21.30
2018-06-27T08:01:06.820Z,21.30
2018-06-27T08:03:34.860Z,21.40
2018-06-27T08:06:02.917Z,21.40
2018-06-27T08:08:30.949Z,21.40
2018-06-27T08:10:59.001Z,21.40
2018-06-27T08:13:27.035Z,21.50
2018-06-27T08:15:55.062Z,21.60
2018-06-27T08:18:23.084Z,21.70
2018-06-27T08:23:18.977Z,21.90
2018-06-27T08:25:50.821Z,22.20
2018-06-27T08:28:19.303Z,22.50
2018-06-27T08:30:47.608Z,22.60
2018-06-27T08:33:15.628Z,22.80
2018-06-27T08:35:43.673Z,22.80
2018-06-27T08:38:11.817Z,23.00
2018-06-27T08:40:39.858Z,23.10
2018-06-27T08:43:07.933Z,23.20
2018-06-27T08:45:36.005Z,23.20
2018-06-27T08:48:04.061Z,23.30
2018-06-27T08:50:32.120Z,23.30
2018-06-27T08:53:00.163Z,23.50
2018-06-27T08:55:28.260Z,23.40
2018-06-27T08:57:56.317Z,23.20
2018-06-27T09:02:52.192Z,23.00
2018-06-27T09:05:20.240Z,22.90
2018-06-27T09:07:48.326Z,23.00
2018-06-27T09:10:16.340Z,23.10
2018-06-27T09:12:44.388Z,23.10
2018-06-27T09:15:12.449Z,23.10
2018-06-27T09:17:40.496Z,23.20
2018-06-27T09:20:08.539Z,23.20
2018-06-27T09:22:36.620Z,23.40
2018-06-27T09:25:04.710Z,23.40
2018-06-27T09:27:33.748Z,23.40
2018-06-27T09:30:01.805Z,23.40
2018-06-27T09:32:29.836Z,23.30
2018-06-27T09:34:57.869Z,23.20
2018-06-27T09:37:25.903Z,23.20
2018-06-27T09:39:53.937Z,23.20
2018-06-27T09:44:49.821Z,23.20
2018-06-27T09:47:17.848Z,23.30
2018-06-27T09:49:45.880Z,23.40
2018-06-27T09:52:13.928Z,23.50
2018-06-27T09:54:42.124Z,23.50
2018-06-27T09:57:13.261Z,23.70
2018-06-27T09:59:42.168Z,23.70
2018-06-27T10:02:10.970Z,23.80
2018-06-27T10:04:39.200Z,23.80
2018-06-27T10:07:07.292Z,23.90
2018-06-27T10:09:35.309Z,23.90
2018-06-27T10:12:03.336Z,23.80
2018-06-27T10:14:31.344Z,23.80
2018-06-27T10:16:59.422Z,23.90
2018-06-27T10:19:27.442Z,24.00
2018-06-27T10:21:55.469Z,24.10
2018-06-27T10:24:23.513Z,24.10
2018-06-27T10:26:51.524Z,24.10
2018-06-27T10:29:19.539Z,24.10
2018-06-27T10:31:47.608Z,24.20
2018-06-27T10:34:15.628Z,24.20
2018-06-27T10:36:43.660Z,24.20
2018-06-27T10:39:11.996Z,24.10
2018-06-27T10:41:40.274Z,24.00
2018-06-27T10:44:08.453Z,24.10
2018-06-27T10:46:36.721Z,24.20
2018-06-27T10:49:04.826Z,24.20
2018-06-27T10:54:00.708Z,24.20
2018-06-27T10:56:29.013Z,24.20
2018-06-27T10:58:57.164Z,24.20
2018-06-27T11:01:25.192Z,24.20
2018-06-27T11:03:53.208Z,24.30
2018-06-27T11:06:21.262Z,24.20
2018-06-27T11:08:49.295Z,24.30
2018-06-27T11:13:45.202Z,24.60
2018-06-27T11:16:13.253Z,24.50
2018-06-27T11:18:41.300Z,24.50
2018-06-27T11:21:09.357Z,24.50
2018-06-27T11:23:37.417Z,24.50
2018-06-27T11:26:05.620Z,24.50
2018-06-27T11:28:33.646Z,24.60
2018-06-27T11:31:01.728Z,24.60
2018-06-27T11:35:57.630Z,24.70
2018-06-27T11:38:25.745Z,24.80
2018-06-27T11:40:53.734Z,24.70
2018-06-27T11:43:21.813Z,24.80
2018-06-27T11:45:49.852Z,24.90
2018-06-27T11:48:17.904Z,24.90
2018-06-27T11:50:45.956Z,25.00
2018-06-27T11:53:14.072Z,25.10
2018-06-27T11:55:42.081Z,25.10
2018-06-27T11:58:10.119Z,25.20
2018-06-27T12:00:38.168Z,25.20
2018-06-27T12:03:06.208Z,25.20
2018-06-27T12:05:34.268Z,25.30
2018-06-27T12:08:02.308Z,25.30
2018-06-27T12:10:30.349Z,25.30
2018-06-27T12:12:58.797Z,25.40
2018-06-27T12:15:26.842Z,25.40
2018-06-27T12:17:54.908Z,25.40
2018-06-27T12:20:22.959Z,25.30
2018-06-27T12:22:50.981Z,25.20
2018-06-27T12:25:19.018Z,25.20
2018-06-27T12:27:47.416Z,25.20
2018-06-27T12:30:20.552Z,25.40
2018-06-27T12:32:48.980Z,25.50
2018-06-27T12:35:17.245Z,25.60
2018-06-27T12:37:45.269Z,25.50
2018-06-27T12:40:13.477Z,25.40
2018-06-27T12:42:41.497Z,25.20
2018-06-27T12:47:38.026Z,25.10
2018-06-27T12:50:06.936Z,25.00
2018-06-27T12:52:34.941Z,25.20
2018-06-27T12:55:04.787Z,25.20
2018-06-27T12:57:33.885Z,25.30
2018-06-27T13:00:02.664Z,25.50
2018-06-27T13:02:30.737Z,25.70
2018-06-27T13:04:59.316Z,25.80
2018-06-27T13:07:27.349Z,25.90
2018-06-27T13:09:55.412Z,25.90
2018-06-27T13:14:51.501Z,25.80
2018-06-27T13:17:19.569Z,25.70
2018-06-27T13:19:48.473Z,25.70
2018-06-27T13:22:16.492Z,25.60
2018-06-27T13:24:44.509Z,25.60
2018-06-27T13:27:12.565Z,25.60
2018-06-27T13:29:40.601Z,25.60
2018-06-27T13:32:08.641Z,25.70
2018-06-27T13:34:36.661Z,25.80
2018-06-27T13:37:04.941Z,25.80
2018-06-27T13:39:33.056Z,25.70
2018-06-27T13:42:01.097Z,25.70
2018-06-27T13:44:29.178Z,25.60
2018-06-27T13:46:57.221Z,25.60
2018-06-27T13:49:25.269Z,25.60
2018-06-27T13:51:53.372Z,25.60
2018-06-27T13:54:21.452Z,25.80
2018-06-27T13:56:49.489Z,26.00
2018-06-27T13:59:17.586Z,26.00
2018-06-27T14:01:45.584Z,26.00
2018-06-27T14:04:13.625Z,26.00
2018-06-27T14:06:41.873Z,26.00
2018-06-27T14:09:10.520Z,26.20
2018-06-27T14:11:38.566Z,26.20
2018-06-27T14:14:06.632Z,26.00
2018-06-27T14:16:34.909Z,26.10
2018-06-27T14:19:02.991Z,26.20
2018-06-27T14:21:31.110Z,26.20
2018-06-27T14:23:59.164Z,26.10
2018-06-27T14:26:27.196Z,26.20
2018-06-27T14:28:55.245Z,26.20
2018-06-27T14:31:23.305Z,26.10
2018-06-27T14:33:51.365Z,26.30
2018-06-27T14:36:19.552Z,26.40
2018-06-27T14:38:47.665Z,26.60
2018-06-27T14:41:15.723Z,26.80
2018-06-27T14:43:43.765Z,26.80
2018-06-27T14:46:11.797Z,26.90
2018-06-27T14:51:07.681Z,27.00
2018-06-27T14:53:35.741Z,26.80
2018-06-27T14:56:03.821Z,26.70
2018-06-27T14:58:31.885Z,26.60
2018-06-27T15:01:00.004Z,26.50
2018-06-27T15:03:28.060Z,26.80
2018-06-27T15:05:56.196Z,27.10
2018-06-27T15:08:24.222Z,27.30
2018-06-27T15:10:52.286Z,27.40
2018-06-27T15:13:20.773Z,27.40
2018-06-27T15:18:16.672Z,27.10
2018-06-27T15:20:44.728Z,27.30
2018-06-27T15:23:12.753Z,27.30
2018-06-27T15:30:36.511Z,31.90
2018-06-27T15:33:04.589Z,32.80
2018-06-27T15:35:32.636Z,34.10
2018-06-27T15:38:00.781Z,34.50
2018-06-27T15:42:56.676Z,34.90
2018-06-27T15:45:24.843Z,33.50
2018-06-27T15:47:54.113Z,32.10
2018-06-27T15:50:26.491Z,31.00
2018-06-27T15:52:55.509Z,29.40
2018-06-27T15:55:25.801Z,28.70
2018-06-27T15:57:54.638Z,29.10
2018-06-27T16:00:22.668Z,29.70
2018-06-27T16:02:50.793Z,30.90
2018-06-27T16:05:18.840Z,31.50
2018-06-27T16:07:46.884Z,35.10
2018-06-27T16:10:14.933Z,33.20
2018-06-27T16:12:44.014Z,33.60
2018-06-27T16:15:12.037Z,32.90
2018-06-27T16:17:40.124Z,32.80
2018-06-27T16:20:08.325Z,33.20
2018-06-27T16:25:04.528Z,34.70
2018-06-27T16:27:32.598Z,34.80
2018-06-27T16:30:00.674Z,35.20
2018-06-27T16:32:28.761Z,35.90
2018-06-27T16:37:24.653Z,35.90
2018-06-27T16:39:52.720Z,35.20
2018-06-27T16:42:20.773Z,34.30
2018-06-27T16:44:48.868Z,33.20
2018-06-27T16:47:16.910Z,31.70
2018-06-27T16:49:44.948Z,30.50
2018-06-27T16:52:13.050Z,29.60
2018-06-27T16:54:41.103Z,28.60
2018-06-27T16:57:09.106Z,28.10
2018-06-27T16:59:37.117Z,27.80
2018-06-27T17:02:05.133Z,28.30
2018-06-27T17:04:33.152Z,29.30
2018-06-27T17:07:01.223Z,29.80
2018-06-27T17:09:29.217Z,30.70
2018-06-27T17:11:57.256Z,31.30
2018-06-27T17:14:25.500Z,32.00
2018-06-27T17:16:53.533Z,32.10
2018-06-27T17:21:49.437Z,32.10
2018-06-27T17:24:17.462Z,31.30
2018-06-27T17:26:45.504Z,31.00
2018-06-27T17:29:13.524Z,30.70
2018-06-27T17:31:41.635Z,30.80
2018-06-27T17:34:09.650Z,31.10
2018-06-27T17:36:37.685Z,31.60
2018-06-27T17:41:35.439Z,31.60
2018-06-27T17:44:03.853Z,31.30
2018-06-27T17:48:59.805Z,31.10
2018-06-27T17:51:27.887Z,30.90
2018-06-27T17:53:55.968Z,30.40
2018-06-27T17:56:24.041Z,30.10
2018-06-27T17:58:52.061Z,29.40
2018-06-27T18:01:20.516Z,28.70
2018-06-27T18:03:48.544Z,28.50
2018-06-27T18:06:16.569Z,28.00
2018-06-27T18:08:44.667Z,27.50
2018-06-27T18:11:12.649Z,26.80
2018-06-27T18:13:40.685Z,26.40
2018-06-27T18:16:08.725Z,26.10
2018-06-27T18:18:36.757Z,25.80
2018-06-27T18:21:04.792Z,25.60
2018-06-27T18:23:32.873Z,25.50
2018-06-27T18:26:00.925Z,25.50
2018-06-27T18:28:29.340Z,25.30
2018-06-27T18:30:57.389Z,25.10
2018-06-27T18:35:57.525Z,24.50
2018-06-27T18:40:53.372Z,24.40
2018-06-27T18:45:50.212Z,24.50
2018-06-27T18:48:18.240Z,24.40
2018-06-27T18:50:46.271Z,24.20
2018-06-27T18:53:22.184Z,24.00
2018-06-27T18:55:50.337Z,23.90
2018-06-27T18:58:18.464Z,23.80
2018-06-27T19:00:46.609Z,23.70
2018-06-27T19:03:14.751Z,23.50
2018-06-27T19:05:42.887Z,23.30
2018-06-27T19:08:10.917Z,23.10
2018-06-27T19:10:38.937Z,22.90
2018-06-27T19:13:06.965Z,22.70
2018-06-27T19:15:34.977Z,22.70
2018-06-27T19:18:03.063Z,22.70
2018-06-27T19:20:31.069Z,22.60
2018-06-27T19:22:59.113Z,22.60
2018-06-27T19:25:27.193Z,22.60
2018-06-27T19:27:55.310Z,22.60
2018-06-27T19:30:23.280Z,22.50
2018-06-27T19:35:19.173Z,22.30
2018-06-27T19:37:47.240Z,22.30
2018-06-27T19:40:15.296Z,22.20
2018-06-27T19:42:43.328Z,22.10
2018-06-27T19:47:39.196Z,21.90
2018-06-27T19:50:08.085Z,21.70
2018-06-27T19:52:36.137Z,21.60
2018-06-27T19:55:04.193Z,21.60
2018-06-27T19:57:32.216Z,21.60
2018-06-27T20:00:00.274Z,21.50
2018-06-27T20:02:28.433Z,21.40
2018-06-27T20:04:56.645Z,21.30
2018-06-27T20:07:24.777Z,21.30
2018-06-27T20:09:52.976Z,21.20
2018-06-27T20:12:21.018Z,21.10
2018-06-27T20:14:49.056Z,21.00
2018-06-27T20:17:17.090Z,20.90
2018-06-27T20:19:45.372Z,20.80
2018-06-27T20:22:13.482Z,20.80
2018-06-27T20:24:41.461Z,20.80
2018-06-27T20:27:09.512Z,20.70
2018-06-27T20:29:37.544Z,20.70
2018-06-27T20:32:05.624Z,20.60
2018-06-27T20:34:33.669Z,20.60
2018-06-27T20:37:01.693Z,20.50
2018-06-27T20:39:29.712Z,20.50
2018-06-27T20:41:57.765Z,20.40
2018-06-27T20:44:25.808Z,20.40
2018-06-27T20:46:53.852Z,20.30
2018-06-27T20:49:21.988Z,20.30
2018-06-27T20:51:50.012Z,20.20
2018-06-27T20:54:18.065Z,20.20
2018-06-27T20:56:46.095Z,20.10
2018-06-27T20:59:14.134Z,20.10
2018-06-27T21:01:42.157Z,20.10
2018-06-27T21:04:10.188Z,20.00
2018-06-27T21:06:38.228Z,20.00
2018-06-27T21:09:07.796Z,19.90
2018-06-27T21:11:35.966Z,19.90
2018-06-27T21:14:03.928Z,19.80
2018-06-27T21:16:31.953Z,19.80
2018-06-27T21:19:00.009Z,19.70
2018-06-27T21:21:28.053Z,19.60
2018-06-27T21:23:56.076Z,19.60
2018-06-27T21:28:51.957Z,19.60
2018-06-27T21:31:20.010Z,19.60
2018-06-27T21:33:48.085Z,19.50
2018-06-27T21:36:16.123Z,19.60
2018-06-27T21:38:44.173Z,19.50
2018-06-27T21:41:12.223Z,19.50
2018-06-27T21:43:40.274Z,19.40
2018-06-27T21:46:08.292Z,19.30
2018-06-27T21:48:36.333Z,19.40
2018-06-27T21:51:04.413Z,19.30
2018-06-27T21:53:32.416Z,19.20
2018-06-27T21:56:00.468Z,19.20
2018-06-27T21:58:28.516Z,19.10
2018-06-27T22:00:56.556Z,19.10
2018-06-27T22:03:24.589Z,19.10
2018-06-27T22:05:52.650Z,19.00
2018-06-27T22:08:20.673Z,18.90
2018-06-27T22:10:48.718Z,18.90
2018-06-27T22:13:16.766Z,18.90
2018-06-27T22:18:12.689Z,18.80
2018-06-27T22:20:40.724Z,18.80
2018-06-27T22:23:08.769Z,18.80
2018-06-27T22:25:36.804Z,18.70
2018-06-27T22:30:32.670Z,18.80
2018-06-27T22:33:00.705Z,18.80
2018-06-27T22:35:28.748Z,18.70
2018-06-27T22:37:56.764Z,18.60
2018-06-27T22:40:24.784Z,18.60
2018-06-27T22:42:52.825Z,18.60
2018-06-27T22:45:20.860Z,18.60
2018-06-27T22:47:48.885Z,18.60
2018-06-27T22:50:16.920Z,18.60
2018-06-27T22:52:44.979Z,18.60
2018-06-27T22:55:13.020Z,18.50
2018-06-27T22:57:41.025Z,18.40
2018-06-27T23:00:09.064Z,18.40
2018-06-27T23:02:37.094Z,18.40
2018-06-27T23:05:05.112Z,18.40
2018-06-27T23:07:33.169Z,18.40
2018-06-27T23:10:01.236Z,18.30
2018-06-27T23:12:29.256Z,18.30
2018-06-27T23:14:57.287Z,18.40
2018-06-27T23:17:25.339Z,18.30
2018-06-27T23:19:53.365Z,18.30
2018-06-27T23:22:32.955Z,18.40
2018-06-27T23:25:00.997Z,18.30
2018-06-27T23:27:29.305Z,18.20
2018-06-27T23:29:57.331Z,18.20
2018-06-27T23:32:25.372Z,18.20
2018-06-27T23:34:53.409Z,18.20
2018-06-27T23:37:21.457Z,18.10
2018-06-27T23:39:49.489Z,18.10
2018-06-27T23:42:17.534Z,18.10
2018-06-27T23:44:45.596Z,18.00
2018-06-27T23:47:13.616Z,18.10
2018-06-27T23:49:41.726Z,18.00
2018-06-27T23:52:09.689Z,18.00
2018-06-27T23:54:37.723Z,18.10
2018-06-27T23:57:05.781Z,18.00
2018-06-27T23:59:33.812Z,18.00
